sensor_id;sensor_type;location;lat;lon;timestamp;temperature;humidity
23063;DHT22;11699;43.704;10.430;2023-07-13T00:02:07;27.30;99.90
23063;DHT22;11699;43.704;10.430;2023-07-13T00:04:35;27.30;99.90
23063;DHT22;11699;43.704;10.430;2023-07-13T00:07:02;27.40;99.90
23063;DHT22;11699;43.704;10.430;2023-07-13T00:09:29;27.40;99.90
23063;DHT22;11699;43.704;10.430;2023-07-13T00:11:57;27.40;99.90
23063;DHT22;11699;43.704;10.430;2023-07-13T00:14:25;27.40;99.90
23063;DHT22;11699;43.704;10.430;2023-07-13T00:16:53;27.50;99.90
23063;DHT22;11699;43.704;10.430;2023-07-13T00:19:21;27.60;99.90
23063;DHT22;11699;43.704;10.430;2023-07-13T00:21:48;27.60;99.90
23063;DHT22;11699;43.704;10.430;2023-07-13T00:24:17;27.70;99.90
23063;DHT22;11699;43.704;10.430;2023-07-13T00:26:49;27.70;99.90
23063;DHT22;11699;43.704;10.430;2023-07-13T00:29:17;27.80;99.90
23063;DHT22;11699;43.704;10.430;2023-07-13T00:31:44;27.80;99.90
23063;DHT22;11699;43.704;10.430;2023-07-13T00:34:11;27.80;99.90
23063;DHT22;11699;43.704;10.430;2023-07-13T00:36:40;27.70;99.90
23063;DHT22;11699;43.704;10.430;2023-07-13T00:39:08;27.80;99.90
23063;DHT22;11699;43.704;10.430;2023-07-13T00:41:35;27.70;99.90
23063;DHT22;11699;43.704;10.430;2023-07-13T00:44:03;27.60;99.90
23063;DHT22;11699;43.704;10.430;2023-07-13T00:46:32;27.50;99.90
23063;DHT22;11699;43.704;10.430;2023-07-13T00:49:01;27.60;99.90
23063;DHT22;11699;43.704;10.430;2023-07-13T00:51:34;27.50;99.90
23063;DHT22;11699;43.704;10.430;2023-07-13T00:54:08;27.50;99.90
23063;DHT22;11699;43.704;10.430;2023-07-13T00:56:38;27.50;99.90
23063;DHT22;11699;43.704;10.430;2023-07-13T00:59:07;27.40;99.90
23063;DHT22;11699;43.704;10.430;2023-07-13T01:01:35;27.40;99.90
23063;DHT22;11699;43.704;10.430;2023-07-13T01:04:02;27.50;99.90
23063;DHT22;11699;43.704;10.430;2023-07-13T01:06:34;27.50;99.90
23063;DHT22;11699;43.704;10.430;2023-07-13T01:09:03;27.50;99.90
23063;DHT22;11699;43.704;10.430;2023-07-13T01:11:32;27.50;99.90
23063;DHT22;11699;43.704;10.430;2023-07-13T01:14:00;27.50;99.90
23063;DHT22;11699;43.704;10.430;2023-07-13T01:16:31;27.50;99.90
23063;DHT22;11699;43.704;10.430;2023-07-13T01:18:59;27.40;99.90
23063;DHT22;11699;43.704;10.430;2023-07-13T01:21:31;27.40;99.90
23063;DHT22;11699;43.704;10.430;2023-07-13T01:23:59;27.40;99.90
23063;DHT22;11699;43.704;10.430;2023-07-13T01:26:28;27.40;99.90
23063;DHT22;11699;43.704;10.430;2023-07-13T01:28:55;27.40;99.90
23063;DHT22;11699;43.704;10.430;2023-07-13T01:31:23;27.40;99.90
23063;DHT22;11699;43.704;10.430;2023-07-13T01:33:50;27.50;99.90
23063;DHT22;11699;43.704;10.430;2023-07-13T01:36:18;27.50;99.90
23063;DHT22;11699;43.704;10.430;2023-07-13T01:38:48;27.40;99.90
23063;DHT22;11699;43.704;10.430;2023-07-13T01:41:15;27.40;99.90
23063;DHT22;11699;43.704;10.430;2023-07-13T01:43:42;27.40;99.90
23063;DHT22;11699;43.704;10.430;2023-07-13T01:46:10;27.40;99.90
23063;DHT22;11699;43.704;10.430;2023-07-13T01:48:37;27.50;99.90
23063;DHT22;11699;43.704;10.430;2023-07-13T01:51:04;27.50;99.90
23063;DHT22;11699;43.704;10.430;2023-07-13T01:53:31;27.40;99.90
23063;DHT22;11699;43.704;10.430;2023-07-13T01:55:59;27.40;99.90
23063;DHT22;11699;43.704;10.430;2023-07-13T01:58:26;27.40;99.90
23063;DHT22;11699;43.704;10.430;2023-07-13T02:00:54;27.30;99.90
23063;DHT22;11699;43.704;10.430;2023-07-13T02:03:21;27.30;99.90
23063;DHT22;11699;43.704;10.430;2023-07-13T02:05:48;27.30;99.90
23063;DHT22;11699;43.704;10.430;2023-07-13T02:08:15;27.30;99.90
23063;DHT22;11699;43.704;10.430;2023-07-13T02:10:42;27.40;99.90
23063;DHT22;11699;43.704;10.430;2023-07-13T02:13:11;27.30;99.90
23063;DHT22;11699;43.704;10.430;2023-07-13T02:15:39;27.30;99.90
23063;DHT22;11699;43.704;10.430;2023-07-13T02:18:07;27.30;99.90
23063;DHT22;11699;43.704;10.430;2023-07-13T02:20:35;27.30;99.90
23063;DHT22;11699;43.704;10.430;2023-07-13T02:23:02;27.20;99.90
23063;DHT22;11699;43.704;10.430;2023-07-13T02:25:29;27.20;99.90
23063;DHT22;11699;43.704;10.430;2023-07-13T02:27:56;27.20;99.90
23063;DHT22;11699;43.704;10.430;2023-07-13T02:30:25;27.10;99.90
23063;DHT22;11699;43.704;10.430;2023-07-13T02:32:52;27.20;99.90
23063;DHT22;11699;43.704;10.430;2023-07-13T02:35:19;27.10;99.90
23063;DHT22;11699;43.704;10.430;2023-07-13T02:37:46;27.10;99.90
23063;DHT22;11699;43.704;10.430;2023-07-13T02:40:14;27.00;99.90
23063;DHT22;11699;43.704;10.430;2023-07-13T02:42:41;27.00;99.90
23063;DHT22;11699;43.704;10.430;2023-07-13T02:45:09;27.00;99.90
23063;DHT22;11699;43.704;10.430;2023-07-13T02:47:40;27.00;99.90
23063;DHT22;11699;43.704;10.430;2023-07-13T02:50:08;27.00;99.90
23063;DHT22;11699;43.704;10.430;2023-07-13T02:52:35;26.90;99.90
23063;DHT22;11699;43.704;10.430;2023-07-13T02:55:03;26.90;99.90
23063;DHT22;11699;43.704;10.430;2023-07-13T02:57:30;26.90;99.90
23063;DHT22;11699;43.704;10.430;2023-07-13T02:59:58;26.90;99.90
23063;DHT22;11699;43.704;10.430;2023-07-13T03:02:26;26.80;99.90
23063;DHT22;11699;43.704;10.430;2023-07-13T03:04:55;26.80;99.90
23063;DHT22;11699;43.704;10.430;2023-07-13T03:07:23;26.80;99.90
23063;DHT22;11699;43.704;10.430;2023-07-13T03:09:54;26.90;99.90
23063;DHT22;11699;43.704;10.430;2023-07-13T03:12:22;26.90;99.90
23063;DHT22;11699;43.704;10.430;2023-07-13T03:14:49;26.90;99.90
23063;DHT22;11699;43.704;10.430;2023-07-13T03:17:16;26.90;99.90
23063;DHT22;11699;43.704;10.430;2023-07-13T03:19:43;27.00;99.90
23063;DHT22;11699;43.704;10.430;2023-07-13T03:22:12;26.90;99.90
23063;DHT22;11699;43.704;10.430;2023-07-13T03:24:39;26.90;99.90
23063;DHT22;11699;43.704;10.430;2023-07-13T03:27:07;27.00;99.90
23063;DHT22;11699;43.704;10.430;2023-07-13T03:29:34;27.00;99.90
23063;DHT22;11699;43.704;10.430;2023-07-13T03:32:01;27.00;99.90
23063;DHT22;11699;43.704;10.430;2023-07-13T03:34:30;27.10;99.90
23063;DHT22;11699;43.704;10.430;2023-07-13T03:36:58;27.10;99.90
23063;DHT22;11699;43.704;10.430;2023-07-13T03:39:27;27.10;99.90
23063;DHT22;11699;43.704;10.430;2023-07-13T03:41:54;27.10;99.90
23063;DHT22;11699;43.704;10.430;2023-07-13T03:44:21;27.10;99.90
23063;DHT22;11699;43.704;10.430;2023-07-13T03:46:48;27.10;99.90
23063;DHT22;11699;43.704;10.430;2023-07-13T03:49:16;27.10;99.90
23063;DHT22;11699;43.704;10.430;2023-07-13T03:51:43;27.10;99.90
23063;DHT22;11699;43.704;10.430;2023-07-13T03:54:10;27.10;99.90
23063;DHT22;11699;43.704;10.430;2023-07-13T03:56:39;27.10;99.90
23063;DHT22;11699;43.704;10.430;2023-07-13T03:59:06;27.10;99.90
23063;DHT22;11699;43.704;10.430;2023-07-13T04:01:33;27.10;99.90
23063;DHT22;11699;43.704;10.430;2023-07-13T04:04:01;27.20;99.90
23063;DHT22;11699;43.704;10.430;2023-07-13T04:06:29;27.20;99.90
23063;DHT22;11699;43.704;10.430;2023-07-13T04:09:00;27.20;99.90
23063;DHT22;11699;43.704;10.430;2023-07-13T04:11:30;27.20;99.90
23063;DHT22;11699;43.704;10.430;2023-07-13T04:13:58;27.20;99.90
23063;DHT22;11699;43.704;10.430;2023-07-13T04:16:26;27.20;99.90
23063;DHT22;11699;43.704;10.430;2023-07-13T04:18:53;27.20;99.90
23063;DHT22;11699;43.704;10.430;2023-07-13T04:21:25;27.20;99.90
23063;DHT22;11699;43.704;10.430;2023-07-13T04:23:53;27.20;99.90
23063;DHT22;11699;43.704;10.430;2023-07-13T04:26:20;27.10;99.90
23063;DHT22;11699;43.704;10.430;2023-07-13T04:28:48;27.20;99.90
23063;DHT22;11699;43.704;10.430;2023-07-13T04:31:17;27.10;99.90
23063;DHT22;11699;43.704;10.430;2023-07-13T04:33:44;27.20;99.90
23063;DHT22;11699;43.704;10.430;2023-07-13T04:36:12;27.20;99.90
23063;DHT22;11699;43.704;10.430;2023-07-13T04:38:39;27.20;99.90
23063;DHT22;11699;43.704;10.430;2023-07-13T04:41:08;27.20;99.90
23063;DHT22;11699;43.704;10.430;2023-07-13T04:43:35;27.20;99.90
23063;DHT22;11699;43.704;10.430;2023-07-13T04:46:03;27.10;99.90
23063;DHT22;11699;43.704;10.430;2023-07-13T04:48:32;27.20;99.90
23063;DHT22;11699;43.704;10.430;2023-07-13T04:51:00;27.30;99.90
23063;DHT22;11699;43.704;10.430;2023-07-13T04:53:28;27.60;99.90
23063;DHT22;11699;43.704;10.430;2023-07-13T04:55:56;27.50;99.90
23063;DHT22;11699;43.704;10.430;2023-07-13T04:58:24;27.50;99.90
23063;DHT22;11699;43.704;10.430;2023-07-13T05:00:51;27.30;99.90
23063;DHT22;11699;43.704;10.430;2023-07-13T05:03:19;27.30;99.90
23063;DHT22;11699;43.704;10.430;2023-07-13T05:05:56;27.40;99.90
23063;DHT22;11699;43.704;10.430;2023-07-13T05:08:23;27.20;99.90
23063;DHT22;11699;43.704;10.430;2023-07-13T05:10:51;27.20;99.90
23063;DHT22;11699;43.704;10.430;2023-07-13T05:13:18;27.30;99.90
23063;DHT22;11699;43.704;10.430;2023-07-13T05:15:47;27.40;99.90
23063;DHT22;11699;43.704;10.430;2023-07-13T05:18:22;27.40;99.90
23063;DHT22;11699;43.704;10.430;2023-07-13T05:20:57;27.50;99.90
23063;DHT22;11699;43.704;10.430;2023-07-13T05:23:25;27.50;99.90
23063;DHT22;11699;43.704;10.430;2023-07-13T05:25:52;27.60;99.90
23063;DHT22;11699;43.704;10.430;2023-07-13T05:28:20;27.50;99.90
23063;DHT22;11699;43.704;10.430;2023-07-13T05:30:47;27.40;99.90
23063;DHT22;11699;43.704;10.430;2023-07-13T05:33:14;27.40;99.90
23063;DHT22;11699;43.704;10.430;2023-07-13T05:35:41;27.40;99.90
23063;DHT22;11699;43.704;10.430;2023-07-13T05:38:10;27.40;99.90
23063;DHT22;11699;43.704;10.430;2023-07-13T05:40:37;27.40;99.90
23063;DHT22;11699;43.704;10.430;2023-07-13T05:43:04;27.60;99.90
23063;DHT22;11699;43.704;10.430;2023-07-13T05:45:31;27.60;99.90
23063;DHT22;11699;43.704;10.430;2023-07-13T05:47:59;27.50;99.90
23063;DHT22;11699;43.704;10.430;2023-07-13T05:50:26;27.50;99.90
23063;DHT22;11699;43.704;10.430;2023-07-13T05:52:53;27.40;99.90
23063;DHT22;11699;43.704;10.430;2023-07-13T05:55:22;27.30;99.90
23063;DHT22;11699;43.704;10.430;2023-07-13T05:57:49;27.20;99.90
23063;DHT22;11699;43.704;10.430;2023-07-13T06:00:17;27.20;99.90
23063;DHT22;11699;43.704;10.430;2023-07-13T06:02:44;27.50;99.90
23063;DHT22;11699;43.704;10.430;2023-07-13T06:05:11;27.70;99.90
23063;DHT22;11699;43.704;10.430;2023-07-13T06:07:38;27.60;99.90
23063;DHT22;11699;43.704;10.430;2023-07-13T06:10:06;27.60;99.90
23063;DHT22;11699;43.704;10.430;2023-07-13T06:12:35;27.70;99.90
23063;DHT22;11699;43.704;10.430;2023-07-13T06:15:02;27.80;99.90
23063;DHT22;11699;43.704;10.430;2023-07-13T06:17:30;27.60;99.90
23063;DHT22;11699;43.704;10.430;2023-07-13T06:19:57;27.50;99.90
23063;DHT22;11699;43.704;10.430;2023-07-13T06:22:24;27.30;99.90
23063;DHT22;11699;43.704;10.430;2023-07-13T06:24:52;27.30;99.90
23063;DHT22;11699;43.704;10.430;2023-07-13T06:27:19;27.40;99.90
23063;DHT22;11699;43.704;10.430;2023-07-13T06:29:48;27.50;99.90
23063;DHT22;11699;43.704;10.430;2023-07-13T06:32:15;27.50;99.90
23063;DHT22;11699;43.704;10.430;2023-07-13T06:34:42;27.70;99.90
23063;DHT22;11699;43.704;10.430;2023-07-13T06:37:09;27.80;99.90
23063;DHT22;11699;43.704;10.430;2023-07-13T06:39:37;27.80;99.90
23063;DHT22;11699;43.704;10.430;2023-07-13T06:42:05;27.70;99.90
23063;DHT22;11699;43.704;10.430;2023-07-13T06:44:33;27.70;99.90
23063;DHT22;11699;43.704;10.430;2023-07-13T06:47:01;27.70;99.90
23063;DHT22;11699;43.704;10.430;2023-07-13T06:49:28;27.80;99.90
23063;DHT22;11699;43.704;10.430;2023-07-13T06:51:55;27.90;99.90
23063;DHT22;11699;43.704;10.430;2023-07-13T06:54:22;28.00;99.90
23063;DHT22;11699;43.704;10.430;2023-07-13T06:56:49;28.10;99.90
23063;DHT22;11699;43.704;10.430;2023-07-13T06:59:17;28.20;99.90
23063;DHT22;11699;43.704;10.430;2023-07-13T07:01:44;28.40;99.90
23063;DHT22;11699;43.704;10.430;2023-07-13T07:04:12;28.40;99.90
23063;DHT22;11699;43.704;10.430;2023-07-13T07:06:39;28.50;99.90
23063;DHT22;11699;43.704;10.430;2023-07-13T07:09:06;28.50;99.90
23063;DHT22;11699;43.704;10.430;2023-07-13T07:11:34;28.50;99.90
23063;DHT22;11699;43.704;10.430;2023-07-13T07:14:01;28.40;99.90
23063;DHT22;11699;43.704;10.430;2023-07-13T07:16:29;28.40;99.90
23063;DHT22;11699;43.704;10.430;2023-07-13T07:18:56;28.40;99.90
23063;DHT22;11699;43.704;10.430;2023-07-13T07:21:24;28.60;99.90
23063;DHT22;11699;43.704;10.430;2023-07-13T07:23:53;28.80;99.90
23063;DHT22;11699;43.704;10.430;2023-07-13T07:26:20;28.70;99.90
23063;DHT22;11699;43.704;10.430;2023-07-13T07:28:47;28.70;99.90
23063;DHT22;11699;43.704;10.430;2023-07-13T07:31:14;28.50;99.90
23063;DHT22;11699;43.704;10.430;2023-07-13T07:33:41;28.40;99.90
23063;DHT22;11699;43.704;10.430;2023-07-13T07:36:09;28.40;99.90
23063;DHT22;11699;43.704;10.430;2023-07-13T07:38:38;28.40;99.90
23063;DHT22;11699;43.704;10.430;2023-07-13T07:41:06;28.50;99.90
23063;DHT22;11699;43.704;10.430;2023-07-13T07:43:33;28.50;99.90
23063;DHT22;11699;43.704;10.430;2023-07-13T07:46:00;28.70;99.90
23063;DHT22;11699;43.704;10.430;2023-07-13T07:48:27;28.80;99.90
23063;DHT22;11699;43.704;10.430;2023-07-13T07:50:54;28.80;99.90
23063;DHT22;11699;43.704;10.430;2023-07-13T07:53:21;28.80;99.90
23063;DHT22;11699;43.704;10.430;2023-07-13T07:55:50;28.70;99.90
23063;DHT22;11699;43.704;10.430;2023-07-13T07:58:18;28.70;99.90
23063;DHT22;11699;43.704;10.430;2023-07-13T08:00:45;28.70;99.90
23063;DHT22;11699;43.704;10.430;2023-07-13T08:03:13;28.70;99.90
23063;DHT22;11699;43.704;10.430;2023-07-13T08:05:40;28.80;99.90
23063;DHT22;11699;43.704;10.430;2023-07-13T08:08:07;28.70;99.90
23063;DHT22;11699;43.704;10.430;2023-07-13T08:10:36;28.60;99.90
23063;DHT22;11699;43.704;10.430;2023-07-13T08:13:05;28.60;99.90
23063;DHT22;11699;43.704;10.430;2023-07-13T08:15:32;28.50;99.90
23063;DHT22;11699;43.704;10.430;2023-07-13T08:17:59;28.40;99.90
23063;DHT22;11699;43.704;10.430;2023-07-13T08:20:26;28.50;99.90
23063;DHT22;11699;43.704;10.430;2023-07-13T08:22:53;28.50;99.90
23063;DHT22;11699;43.704;10.430;2023-07-13T08:25:20;28.50;99.90
23063;DHT22;11699;43.704;10.430;2023-07-13T08:27:48;28.90;99.90
23063;DHT22;11699;43.704;10.430;2023-07-13T08:30:17;29.20;99.90
23063;DHT22;11699;43.704;10.430;2023-07-13T08:32:45;29.70;99.90
23063;DHT22;11699;43.704;10.430;2023-07-13T08:35:12;30.00;99.90
23063;DHT22;11699;43.704;10.430;2023-07-13T08:37:41;30.00;99.90
23063;DHT22;11699;43.704;10.430;2023-07-13T08:40:10;29.80;99.90
23063;DHT22;11699;43.704;10.430;2023-07-13T08:42:42;29.40;99.90
23063;DHT22;11699;43.704;10.430;2023-07-13T08:45:19;29.10;99.90
23063;DHT22;11699;43.704;10.430;2023-07-13T08:47:52;29.10;99.90
23063;DHT22;11699;43.704;10.430;2023-07-13T08:50:25;28.90;99.90
23063;DHT22;11699;43.704;10.430;2023-07-13T08:52:55;29.20;99.90
23063;DHT22;11699;43.704;10.430;2023-07-13T08:55:26;29.40;99.90
23063;DHT22;11699;43.704;10.430;2023-07-13T08:58:03;29.20;99.90
23063;DHT22;11699;43.704;10.430;2023-07-13T09:00:42;29.30;99.90
23063;DHT22;11699;43.704;10.430;2023-07-13T09:03:18;29.30;99.90
23063;DHT22;11699;43.704;10.430;2023-07-13T09:05:50;29.40;99.90
23063;DHT22;11699;43.704;10.430;2023-07-13T09:08:33;29.50;99.90
23063;DHT22;11699;43.704;10.430;2023-07-13T09:11:11;29.50;99.90
23063;DHT22;11699;43.704;10.430;2023-07-13T09:13:47;29.60;99.90
23063;DHT22;11699;43.704;10.430;2023-07-13T09:16:17;29.60;99.90
23063;DHT22;11699;43.704;10.430;2023-07-13T09:18:48;29.60;99.90
23063;DHT22;11699;43.704;10.430;2023-07-13T09:21:18;29.60;99.90
23063;DHT22;11699;43.704;10.430;2023-07-13T09:23:48;29.40;99.90
23063;DHT22;11699;43.704;10.430;2023-07-13T09:26:19;29.30;99.90
23063;DHT22;11699;43.704;10.430;2023-07-13T09:28:49;29.20;99.90
23063;DHT22;11699;43.704;10.430;2023-07-13T09:31:24;29.20;99.90
23063;DHT22;11699;43.704;10.430;2023-07-13T09:33:53;29.20;99.90
23063;DHT22;11699;43.704;10.430;2023-07-13T09:36:23;29.50;99.90
23063;DHT22;11699;43.704;10.430;2023-07-13T09:38:58;29.60;99.90
23063;DHT22;11699;43.704;10.430;2023-07-13T09:41:33;29.70;99.90
23063;DHT22;11699;43.704;10.430;2023-07-13T09:44:08;29.90;99.90
23063;DHT22;11699;43.704;10.430;2023-07-13T09:46:43;30.20;99.90
23063;DHT22;11699;43.704;10.430;2023-07-13T09:49:12;30.50;99.90
23063;DHT22;11699;43.704;10.430;2023-07-13T09:51:41;30.80;99.90
23063;DHT22;11699;43.704;10.430;2023-07-13T09:54:18;30.80;99.90
23063;DHT22;11699;43.704;10.430;2023-07-13T09:56:46;31.20;99.90
23063;DHT22;11699;43.704;10.430;2023-07-13T09:59:19;31.30;99.90
23063;DHT22;11699;43.704;10.430;2023-07-13T10:01:48;30.90;99.90
23063;DHT22;11699;43.704;10.430;2023-07-13T10:04:19;30.30;99.90
23063;DHT22;11699;43.704;10.430;2023-07-13T10:06:47;30.00;99.90
23063;DHT22;11699;43.704;10.430;2023-07-13T10:09:15;29.70;99.90
23063;DHT22;11699;43.704;10.430;2023-07-13T10:11:45;29.70;99.90
23063;DHT22;11699;43.704;10.430;2023-07-13T10:14:15;30.10;99.90
23063;DHT22;11699;43.704;10.430;2023-07-13T10:16:44;30.70;99.90
23063;DHT22;11699;43.704;10.430;2023-07-13T10:19:16;31.40;99.90
23063;DHT22;11699;43.704;10.430;2023-07-13T10:21:50;31.90;99.90
23063;DHT22;11699;43.704;10.430;2023-07-13T10:24:21;32.00;99.90
23063;DHT22;11699;43.704;10.430;2023-07-13T10:26:54;31.40;99.90
23063;DHT22;11699;43.704;10.430;2023-07-13T10:29:27;31.10;99.90
23063;DHT22;11699;43.704;10.430;2023-07-13T10:31:55;31.50;99.90
23063;DHT22;11699;43.704;10.430;2023-07-13T10:34:25;32.00;99.90
23063;DHT22;11699;43.704;10.430;2023-07-13T10:36:53;31.80;99.90
23063;DHT22;11699;43.704;10.430;2023-07-13T10:39:22;31.90;99.90
23063;DHT22;11699;43.704;10.430;2023-07-13T10:41:53;32.60;99.90
23063;DHT22;11699;43.704;10.430;2023-07-13T10:44:24;33.50;99.90
23063;DHT22;11699;43.704;10.430;2023-07-13T10:46:57;34.40;99.90
23063;DHT22;11699;43.704;10.430;2023-07-13T10:49:29;34.50;99.90
23063;DHT22;11699;43.704;10.430;2023-07-13T10:51:58;34.70;99.90
23063;DHT22;11699;43.704;10.430;2023-07-13T10:54:31;35.00;99.90
23063;DHT22;11699;43.704;10.430;2023-07-13T10:57:16;35.40;99.90
23063;DHT22;11699;43.704;10.430;2023-07-13T10:59:47;35.80;99.90
23063;DHT22;11699;43.704;10.430;2023-07-13T11:02:23;35.60;99.90
23063;DHT22;11699;43.704;10.430;2023-07-13T11:04:54;35.50;99.90
23063;DHT22;11699;43.704;10.430;2023-07-13T11:07:26;35.90;99.90
23063;DHT22;11699;43.704;10.430;2023-07-13T11:09:55;36.20;99.90
23063;DHT22;11699;43.704;10.430;2023-07-13T11:15:12;36.00;99.90
23063;DHT22;11699;43.704;10.430;2023-07-13T11:17:51;36.00;99.90
23063;DHT22;11699;43.704;10.430;2023-07-13T11:20:35;35.80;99.90
23063;DHT22;11699;43.704;10.430;2023-07-13T11:23:33;35.00;99.90
23063;DHT22;11699;43.704;10.430;2023-07-13T11:26:39;34.70;99.90
23063;DHT22;11699;43.704;10.430;2023-07-13T11:29:09;34.00;99.90
23063;DHT22;11699;43.704;10.430;2023-07-13T11:31:37;34.30;99.90
23063;DHT22;11699;43.704;10.430;2023-07-13T11:34:07;33.80;99.90
23063;DHT22;11699;43.704;10.430;2023-07-13T11:36:43;33.70;99.90
23063;DHT22;11699;43.704;10.430;2023-07-13T11:39:19;32.90;99.90
23063;DHT22;11699;43.704;10.430;2023-07-13T11:41:51;33.00;99.90
23063;DHT22;11699;43.704;10.430;2023-07-13T11:44:22;33.00;99.90
23063;DHT22;11699;43.704;10.430;2023-07-13T11:46:52;33.70;99.90
23063;DHT22;11699;43.704;10.430;2023-07-13T11:49:21;34.00;99.90
23063;DHT22;11699;43.704;10.430;2023-07-13T11:51:51;34.20;99.90
23063;DHT22;11699;43.704;10.430;2023-07-13T11:54:25;34.60;99.90
23063;DHT22;11699;43.704;10.430;2023-07-13T11:56:55;35.30;99.90
23063;DHT22;11699;43.704;10.430;2023-07-13T11:59:24;35.50;99.90
23063;DHT22;11699;43.704;10.430;2023-07-13T12:01:54;35.40;99.90
23063;DHT22;11699;43.704;10.430;2023-07-13T12:04:25;35.70;99.90
23063;DHT22;11699;43.704;10.430;2023-07-13T12:06:57;35.90;99.90
23063;DHT22;11699;43.704;10.430;2023-07-13T12:09:27;36.10;99.90
23063;DHT22;11699;43.704;10.430;2023-07-13T12:11:57;36.00;99.90
23063;DHT22;11699;43.704;10.430;2023-07-13T12:14:27;36.00;99.90
23063;DHT22;11699;43.704;10.430;2023-07-13T12:16:55;36.20;99.90
23063;DHT22;11699;43.704;10.430;2023-07-13T12:19:25;35.90;99.90
23063;DHT22;11699;43.704;10.430;2023-07-13T12:21:57;36.10;99.90
23063;DHT22;11699;43.704;10.430;2023-07-13T12:24:26;35.70;99.90
23063;DHT22;11699;43.704;10.430;2023-07-13T12:26:58;35.10;99.90
23063;DHT22;11699;43.704;10.430;2023-07-13T12:29:27;34.60;99.90
23063;DHT22;11699;43.704;10.430;2023-07-13T12:31:54;34.60;99.90
23063;DHT22;11699;43.704;10.430;2023-07-13T12:34:23;35.30;99.90
23063;DHT22;11699;43.704;10.430;2023-07-13T12:36:53;35.70;99.90
23063;DHT22;11699;43.704;10.430;2023-07-13T12:39:24;35.50;99.90
23063;DHT22;11699;43.704;10.430;2023-07-13T12:41:53;35.90;99.90
23063;DHT22;11699;43.704;10.430;2023-07-13T12:44:27;36.40;99.90
23063;DHT22;11699;43.704;10.430;2023-07-13T12:46:58;36.10;99.90
23063;DHT22;11699;43.704;10.430;2023-07-13T12:49:29;36.50;99.90
23063;DHT22;11699;43.704;10.430;2023-07-13T12:52:00;36.20;99.90
23063;DHT22;11699;43.704;10.430;2023-07-13T12:54:30;36.10;99.90
23063;DHT22;11699;43.704;10.430;2023-07-13T12:56:59;35.90;99.90
23063;DHT22;11699;43.704;10.430;2023-07-13T12:59:32;35.70;99.90
23063;DHT22;11699;43.704;10.430;2023-07-13T13:02:21;36.10;99.90
23063;DHT22;11699;43.704;10.430;2023-07-13T13:04:50;36.10;99.90
23063;DHT22;11699;43.704;10.430;2023-07-13T13:07:17;36.10;99.90
23063;DHT22;11699;43.704;10.430;2023-07-13T13:09:47;35.60;99.90
23063;DHT22;11699;43.704;10.430;2023-07-13T13:12:15;35.50;99.90
23063;DHT22;11699;43.704;10.430;2023-07-13T13:14:43;35.30;99.90
23063;DHT22;11699;43.704;10.430;2023-07-13T13:17:18;35.30;99.90
23063;DHT22;11699;43.704;10.430;2023-07-13T13:19:47;35.10;99.90
23063;DHT22;11699;43.704;10.430;2023-07-13T13:22:16;35.10;99.90
23063;DHT22;11699;43.704;10.430;2023-07-13T13:24:44;35.40;99.90
23063;DHT22;11699;43.704;10.430;2023-07-13T13:27:21;35.60;99.90
23063;DHT22;11699;43.704;10.430;2023-07-13T13:29:51;35.60;99.90
23063;DHT22;11699;43.704;10.430;2023-07-13T13:32:21;35.60;99.90
23063;DHT22;11699;43.704;10.430;2023-07-13T13:34:50;35.30;99.90
23063;DHT22;11699;43.704;10.430;2023-07-13T13:37:23;35.40;99.90
23063;DHT22;11699;43.704;10.430;2023-07-13T13:39:53;35.20;99.90
23063;DHT22;11699;43.704;10.430;2023-07-13T13:42:30;34.90;99.90
23063;DHT22;11699;43.704;10.430;2023-07-13T13:44:58;35.00;99.90
23063;DHT22;11699;43.704;10.430;2023-07-13T13:47:30;34.80;99.90
23063;DHT22;11699;43.704;10.430;2023-07-13T13:50:04;34.90;99.90
23063;DHT22;11699;43.704;10.430;2023-07-13T13:52:40;34.90;99.90
23063;DHT22;11699;43.704;10.430;2023-07-13T13:55:13;34.60;99.90
23063;DHT22;11699;43.704;10.430;2023-07-13T13:57:47;34.20;99.90
23063;DHT22;11699;43.704;10.430;2023-07-13T14:00:20;34.50;99.90
23063;DHT22;11699;43.704;10.430;2023-07-13T14:02:50;34.40;99.90
23063;DHT22;11699;43.704;10.430;2023-07-13T14:05:22;34.70;99.90
23063;DHT22;11699;43.704;10.430;2023-07-13T14:07:52;34.70;99.90
23063;DHT22;11699;43.704;10.430;2023-07-13T14:10:24;34.60;99.90
23063;DHT22;11699;43.704;10.430;2023-07-13T14:12:56;34.10;99.90
23063;DHT22;11699;43.704;10.430;2023-07-13T14:15:27;34.00;99.90
23063;DHT22;11699;43.704;10.430;2023-07-13T14:18:00;33.90;99.90
23063;DHT22;11699;43.704;10.430;2023-07-13T14:20:30;34.00;99.90
23063;DHT22;11699;43.704;10.430;2023-07-13T14:22:59;34.00;99.90
23063;DHT22;11699;43.704;10.430;2023-07-13T14:25:32;34.00;99.90
23063;DHT22;11699;43.704;10.430;2023-07-13T14:28:19;33.80;99.90
23063;DHT22;11699;43.704;10.430;2023-07-13T14:30:49;33.90;99.90
23063;DHT22;11699;43.704;10.430;2023-07-13T14:33:21;33.90;99.90
23063;DHT22;11699;43.704;10.430;2023-07-13T14:35:50;33.70;99.90
23063;DHT22;11699;43.704;10.430;2023-07-13T14:38:23;33.40;99.90
23063;DHT22;11699;43.704;10.430;2023-07-13T14:40:53;33.50;99.90
23063;DHT22;11699;43.704;10.430;2023-07-13T14:43:25;33.70;99.90
23063;DHT22;11699;43.704;10.430;2023-07-13T14:45:56;33.70;99.90
23063;DHT22;11699;43.704;10.430;2023-07-13T14:48:25;33.70;99.90
23063;DHT22;11699;43.704;10.430;2023-07-13T14:50:57;33.40;99.90
23063;DHT22;11699;43.704;10.430;2023-07-13T14:53:30;33.30;99.90
23063;DHT22;11699;43.704;10.430;2023-07-13T14:56:00;33.20;99.90
23063;DHT22;11699;43.704;10.430;2023-07-13T14:58:32;33.10;99.90
23063;DHT22;11699;43.704;10.430;2023-07-13T15:01:02;33.10;99.90
23063;DHT22;11699;43.704;10.430;2023-07-13T15:03:32;33.00;99.90
23063;DHT22;11699;43.704;10.430;2023-07-13T15:06:01;32.70;99.90
23063;DHT22;11699;43.704;10.430;2023-07-13T15:08:32;32.50;99.90
23063;DHT22;11699;43.704;10.430;2023-07-13T15:11:04;32.70;99.90
23063;DHT22;11699;43.704;10.430;2023-07-13T15:13:36;33.00;99.90
23063;DHT22;11699;43.704;10.430;2023-07-13T15:16:15;33.10;99.90
23063;DHT22;11699;43.704;10.430;2023-07-13T15:18:48;33.10;99.90
23063;DHT22;11699;43.704;10.430;2023-07-13T15:21:20;33.00;99.90
23063;DHT22;11699;43.704;10.430;2023-07-13T15:23:51;32.70;99.90
23063;DHT22;11699;43.704;10.430;2023-07-13T15:26:20;32.60;99.90
23063;DHT22;11699;43.704;10.430;2023-07-13T15:28:51;32.60;99.90
23063;DHT22;11699;43.704;10.430;2023-07-13T15:31:22;32.50;99.90
23063;DHT22;11699;43.704;10.430;2023-07-13T15:33:53;32.30;99.90